createdAt,value
2022-09-05T00:01:07.729Z,96058
2022-09-05T00:02:17.354Z,96054
2022-09-05T00:03:26.313Z,96049
2022-09-05T00:04:34.758Z,96052
2022-09-05T00:05:46.590Z,96047
2022-09-05T00:06:54.988Z,96045
2022-09-05T00:08:03.624Z,96050
2022-09-05T00:09:13.278Z,96048
2022-09-05T00:10:22.952Z,96044
2022-09-05T00:11:40.178Z,96045
2022-09-05T00:12:43.270Z,96046
2022-09-05T00:13:51.982Z,96044
2022-09-05T00:15:15.617Z,96043
2022-09-05T00:16:12.330Z,96044
2022-09-05T00:17:20.959Z,96041
2022-09-05T00:20:44.705Z,96042
2022-09-05T00:22:27.423Z,96038
2022-09-05T00:24:23.614Z,96039
2022-09-05T00:24:24.198Z,96041
2022-09-05T00:24:24.573Z,96040
2022-09-05T00:24:41.850Z,96038
2022-09-05T00:25:35.997Z,96031
2022-09-05T00:26:50.059Z,96036
2022-09-05T00:27:54.980Z,96034
2022-09-05T00:29:04.653Z,96033
2022-09-05T00:31:06.474Z,96034
2022-09-05T00:31:52.149Z,96030
2022-09-05T00:32:36.781Z,96036
2022-09-05T00:33:46.337Z,96038
2022-09-05T00:34:54.021Z,96040
2022-09-05T00:36:03.672Z,96042
2022-09-05T00:37:14.969Z,96043
2022-09-05T00:38:22.290Z,96038
2022-09-05T00:39:31.611Z,96041
2022-09-05T00:40:40.404Z,96041
2022-09-05T00:41:49.031Z,96042
2022-09-05T00:42:58.690Z,96038
2022-09-05T00:44:06.408Z,96041
2022-09-05T00:45:19.352Z,96040
2022-09-05T00:46:25.879Z,96034
2022-09-05T00:47:35.470Z,96037
2022-09-05T00:48:45.113Z,96042
2022-09-05T00:49:53.785Z,96041
2022-09-05T00:51:02.448Z,96037
2022-09-05T00:52:12.151Z,96035
2022-09-05T00:53:20.931Z,96034
2022-09-05T00:54:40.297Z,96036
2022-09-05T00:55:40.190Z,96034
2022-09-05T00:56:47.854Z,96033
2022-09-05T00:57:57.577Z,96031
2022-09-05T00:59:06.283Z,96033
2022-09-05T01:00:17.487Z,96030
2022-09-05T01:01:24.668Z,96032
2022-09-05T01:02:36.387Z,96029
2022-09-05T01:03:42.027Z,96030
2022-09-05T01:04:51.693Z,96031
2022-09-05T01:06:00.364Z,96031
2022-09-05T01:07:09.022Z,96029
2022-09-05T01:08:19.728Z,96032
2022-09-05T01:09:29.430Z,96035
2022-09-05T01:10:39.090Z,96031
2022-09-05T01:11:47.737Z,96035
2022-09-05T01:12:56.396Z,96033
2022-09-05T01:14:07.799Z,96033
2022-09-05T01:15:15.721Z,96038
2022-09-05T01:16:23.552Z,96036
2022-09-05T01:17:32.111Z,96036
2022-09-05T01:18:40.783Z,96033
2022-09-05T01:19:50.451Z,96034
2022-09-05T01:21:00.127Z,96036
2022-09-05T01:22:07.784Z,96031
2022-09-05T01:23:17.435Z,96034
2022-09-05T01:24:28.317Z,96035
2022-09-05T01:25:37.876Z,96033
2022-09-05T01:26:48.558Z,96036
2022-09-05T01:28:11.280Z,96036
2022-09-05T01:29:14.644Z,96035
2022-09-05T01:30:18.485Z,96034
2022-09-05T01:31:28.227Z,96041
2022-09-05T01:32:37.823Z,96039
2022-09-05T01:33:46.478Z,96037
2022-09-05T01:34:55.148Z,96039
2022-09-05T01:36:04.821Z,96039
2022-09-05T01:37:25.056Z,96036
2022-09-05T01:38:25.120Z,96037
2022-09-05T01:39:49.236Z,96038
2022-09-05T01:40:43.525Z,96039
2022-09-05T01:41:54.027Z,96039
2022-09-05T01:43:02.713Z,96036
2022-09-05T01:44:11.412Z,96035
2022-09-05T01:45:20.102Z,96032
2022-09-05T01:46:30.855Z,96034
2022-09-05T01:47:40.494Z,96029
2022-09-05T01:48:48.163Z,96035
2022-09-05T01:50:00.784Z,96035
2022-09-05T01:51:09.927Z,96032
2022-09-05T01:52:19.119Z,96030
2022-09-05T01:53:28.784Z,96033
2022-09-05T01:54:36.485Z,96030
2022-09-05T01:56:02.020Z,96030
2022-09-05T01:56:56.822Z,96032
2022-09-05T01:58:05.509Z,96032
2022-09-05T01:59:15.144Z,96030
2022-09-05T02:00:22.795Z,96034
2022-09-05T02:01:33.300Z,96029
2022-09-05T02:02:50.538Z,96031
2022-09-05T02:03:52.784Z,96033
2022-09-05T02:05:02.468Z,96032
2022-09-05T02:06:11.114Z,96030
2022-09-05T02:07:30.696Z,96029
2022-09-05T02:08:30.520Z,96029
2022-09-05T02:09:39.227Z,96032
2022-09-05T02:10:48.918Z,96033
2022-09-05T02:11:57.730Z,96030
2022-09-05T02:13:06.484Z,96032
2022-09-05T02:14:24.431Z,96033
2022-09-05T02:15:26.854Z,96035
2022-09-05T02:16:35.430Z,96039
2022-09-05T02:17:50.263Z,96037
2022-09-05T02:18:54.781Z,96038
2022-09-05T02:20:03.429Z,96036
2022-09-05T02:21:13.106Z,96036
2022-09-05T02:22:20.776Z,96036
2022-09-05T02:23:40.573Z,96039
2022-09-05T02:24:40.203Z,96043
2022-09-05T02:26:02.169Z,96040
2022-09-05T02:27:00.496Z,96043
2022-09-05T02:28:10.188Z,96042
2022-09-05T02:29:28.727Z,96037
2022-09-05T02:30:30.533Z,96039
2022-09-05T02:31:39.205Z,96043
2022-09-05T02:32:47.859Z,96042
2022-09-05T02:33:58.759Z,96046
2022-09-05T02:35:06.204Z,96045
2022-09-05T02:36:16.931Z,96047
2022-09-05T02:37:33.812Z,96046
2022-09-05T02:39:02.637Z,96042
2022-09-05T02:43:51.889Z,96045
2022-09-05T02:45:04.963Z,96046
2022-09-05T02:45:05.488Z,96047
2022-09-05T02:45:05.593Z,96045
2022-09-05T02:45:15.526Z,96041
2022-09-05T02:45:41.208Z,96041
2022-09-05T02:46:49.465Z,96042
2022-09-05T02:47:57.498Z,96042
2022-09-05T02:49:07.783Z,96046
2022-09-05T02:51:01.264Z,96044
2022-09-05T02:54:02.062Z,96046
2022-09-05T02:55:16.310Z,96049
2022-09-05T02:57:31.808Z,96048
2022-09-05T02:57:31.869Z,96049
2022-09-05T02:57:31.991Z,96053
2022-09-05T02:57:32.021Z,96046
2022-09-05T02:58:48.053Z,96051
2022-09-05T02:59:43.059Z,96052
2022-09-05T03:00:51.709Z,96054
2022-09-05T03:02:00.393Z,96047
2022-09-05T03:03:11.064Z,96050
2022-09-05T03:04:20.678Z,96054
2022-09-05T03:05:28.408Z,96052
2022-09-05T03:06:37.024Z,96050
2022-09-05T03:07:46.676Z,96051
2022-09-05T03:08:55.890Z,96053
2022-09-05T03:10:05.042Z,96052
2022-09-05T03:11:13.711Z,96057
2022-09-05T03:12:29.058Z,96058
2022-09-05T03:13:33.049Z,96051
2022-09-05T03:14:41.717Z,96052
2022-09-05T03:15:50.380Z,96050
2022-09-05T03:17:01.113Z,96047
2022-09-05T03:18:20.449Z,96052
2022-09-05T03:19:18.385Z,96047
2022-09-05T03:20:27.081Z,96049
2022-09-05T03:21:35.779Z,96049
2022-09-05T03:22:44.471Z,96050
2022-09-05T03:23:52.166Z,96046
2022-09-05T03:25:00.855Z,96051
2022-09-05T03:26:10.555Z,96054
2022-09-05T03:27:18.215Z,96048
2022-09-05T03:28:28.901Z,96048
2022-09-05T03:29:38.571Z,96055
2022-09-05T03:30:47.273Z,96051
2022-09-05T03:31:56.924Z,96052
2022-09-05T03:33:04.582Z,96049
2022-09-05T03:34:13.290Z,96051
2022-09-05T03:35:22.986Z,96050
2022-09-05T03:36:30.658Z,96050
2022-09-05T03:37:39.336Z,96050
2022-09-05T03:38:47.979Z,96051
2022-09-05T03:39:56.698Z,96049
2022-09-05T03:41:07.279Z,96051
2022-09-05T03:42:15.170Z,96047
2022-09-05T03:43:23.677Z,96050
2022-09-05T03:44:33.358Z,96049
2022-09-05T03:45:42.103Z,96047
2022-09-05T03:46:50.739Z,96052
2022-09-05T03:48:01.736Z,96047
2022-09-05T03:49:10.892Z,96048
2022-09-05T03:52:27.447Z,96048
2022-09-05T03:54:08.582Z,96046
2022-09-05T03:55:35.379Z,96045
2022-09-05T03:57:09.668Z,96053
2022-09-05T03:57:09.887Z,96049
2022-09-05T03:57:10.200Z,96045
2022-09-05T03:57:41.377Z,96050
2022-09-05T03:58:56.213Z,96049
2022-09-05T03:59:45.780Z,96050
2022-09-05T04:00:54.453Z,96046
2022-09-05T04:02:59.954Z,96048
2022-09-05T04:06:01.005Z,96049
2022-09-05T04:07:32.470Z,96046
2022-09-05T04:08:11.935Z,96048
2022-09-05T04:08:20.062Z,96046
2022-09-05T04:08:20.103Z,96045
2022-09-05T04:09:09.178Z,96046
2022-09-05T04:10:20.690Z,96045
2022-09-05T04:11:29.420Z,96040
2022-09-05T04:12:38.093Z,96039
2022-09-05T04:13:46.777Z,96041
2022-09-05T04:14:57.457Z,96038
2022-09-05T04:16:05.111Z,96037
2022-09-05T04:17:13.781Z,96042
2022-09-05T04:18:25.927Z,96037
2022-09-05T04:19:33.070Z,96042
2022-09-05T04:20:42.739Z,96043
2022-09-05T04:21:51.393Z,96039
2022-09-05T04:23:00.068Z,96043
2022-09-05T04:24:09.783Z,96039
2022-09-05T04:25:18.446Z,96038
2022-09-05T04:26:27.165Z,96040
2022-09-05T04:27:35.940Z,96042
2022-09-05T04:28:49.999Z,96044
2022-09-05T04:29:56.282Z,96041
2022-09-05T04:31:04.980Z,96046
2022-09-05T04:32:18.459Z,96047
2022-09-05T04:33:33.407Z,96048
2022-09-05T04:34:35.001Z,96046
2022-09-05T04:35:44.700Z,96048
2022-09-05T04:36:54.359Z,96044
2022-09-05T04:38:03.181Z,96046
2022-09-05T04:39:12.974Z,96048
2022-09-05T04:40:20.675Z,96046
2022-09-05T04:41:37.812Z,96048
2022-09-05T04:42:41.056Z,96044
2022-09-05T04:43:48.740Z,96043
2022-09-05T04:44:58.420Z,96045
2022-09-05T04:46:07.149Z,96042
2022-09-05T04:47:16.778Z,96046
2022-09-05T04:48:27.651Z,96047
2022-09-05T04:49:35.100Z,96049
2022-09-05T04:50:43.784Z,96048
2022-09-05T04:52:00.436Z,96050
2022-09-05T04:53:03.143Z,96046
2022-09-05T04:54:12.819Z,96047
2022-09-05T04:55:21.546Z,96049
2022-09-05T04:56:30.221Z,96049
2022-09-05T04:57:39.964Z,96051
2022-09-05T05:00:06.224Z,96051
2022-09-05T05:00:57.635Z,96050
2022-09-05T05:05:48.752Z,96054
2022-09-05T05:06:06.128Z,96060
2022-09-05T05:06:07.393Z,96065
2022-09-05T05:06:07.648Z,96059
2022-09-05T05:06:07.763Z,96059
2022-09-05T05:07:05.984Z,96070
2022-09-05T05:08:13.015Z,96067
2022-09-05T05:09:22.496Z,96071
2022-09-05T05:10:52.683Z,96072
2022-09-05T05:14:17.615Z,96074
2022-09-05T05:16:27.882Z,96076
2022-09-05T05:17:29.951Z,96077
2022-09-05T05:18:04.326Z,96072
2022-09-05T05:18:05.187Z,96074
2022-09-05T05:18:05.652Z,96077
2022-09-05T05:18:56.355Z,96072
2022-09-05T05:20:00.757Z,96073
2022-09-05T05:21:08.206Z,96068
2022-09-05T05:22:16.856Z,96072
2022-09-05T05:23:25.511Z,96071
2022-09-05T05:24:34.188Z,96075
2022-09-05T05:25:44.858Z,96079
2022-09-05T05:26:55.916Z,96078
2022-09-05T05:28:08.685Z,96083
2022-09-05T05:29:17.542Z,96080
2022-09-05T05:30:23.537Z,96079
2022-09-05T05:31:32.327Z,96077
2022-09-05T05:32:44.793Z,96079
2022-09-05T05:33:50.569Z,96082
2022-09-05T05:35:01.221Z,96085
2022-09-05T05:36:08.941Z,96089
2022-09-05T05:37:18.617Z,96091
2022-09-05T05:38:28.275Z,96091
2022-09-05T05:39:36.001Z,96095
2022-09-05T05:40:50.708Z,96097
2022-09-05T05:41:55.332Z,96098
2022-09-05T05:43:05.972Z,96098
2022-09-05T05:44:15.645Z,96103
2022-09-05T05:45:24.356Z,96102
2022-09-05T05:46:33.137Z,96103
2022-09-05T05:47:41.780Z,96102
2022-09-05T05:48:56.849Z,96105
2022-09-05T05:50:00.053Z,96102
2022-09-05T05:51:09.694Z,96109
2022-09-05T05:52:19.440Z,96106
2022-09-05T05:53:29.054Z,96101
2022-09-05T05:54:37.791Z,96107
2022-09-05T05:55:51.156Z,96105
2022-09-05T05:56:57.087Z,96105
2022-09-05T05:58:06.722Z,96106
2022-09-05T05:59:16.431Z,96104
2022-09-05T06:00:27.751Z,96114
2022-09-05T06:01:38.822Z,96108
2022-09-05T06:02:47.626Z,96112
2022-09-05T06:03:58.096Z,96111
2022-09-05T06:05:07.788Z,96115
2022-09-05T06:06:15.439Z,96112
2022-09-05T06:07:24.089Z,96116
2022-09-05T06:09:26.812Z,96115
2022-09-05T06:11:23.311Z,96114
2022-09-05T06:13:40.382Z,96121
2022-09-05T06:14:53.337Z,96121
2022-09-05T06:14:53.546Z,96114
2022-09-05T06:15:03.309Z,96114
2022-09-05T06:15:38.570Z,96119
2022-09-05T06:16:47.295Z,96115
2022-09-05T06:17:56.922Z,96119
2022-09-05T06:19:05.600Z,96108
2022-09-05T06:20:27.391Z,96110
2022-09-05T06:22:07.989Z,96110
2022-09-05T06:22:36.777Z,96116
2022-09-05T06:23:47.456Z,96114
2022-09-05T06:24:57.174Z,96117
2022-09-05T06:26:05.721Z,96118
2022-09-05T06:27:15.379Z,96119
2022-09-05T06:28:24.057Z,96121
2022-09-05T06:29:33.899Z,96119
2022-09-05T06:30:44.358Z,96122
2022-09-05T06:31:55.067Z,96123
2022-09-05T06:33:04.722Z,96123
2022-09-05T06:34:30.939Z,96123
2022-09-05T06:35:23.032Z,96119
2022-09-05T06:36:35.119Z,96119
2022-09-05T06:37:43.824Z,96119
2022-09-05T06:38:53.489Z,96121
2022-09-05T06:40:02.256Z,96120
2022-09-05T06:41:11.884Z,96118
2022-09-05T06:42:30.744Z,96123
2022-09-05T06:43:32.210Z,96121
2022-09-05T06:44:41.867Z,96124
2022-09-05T06:45:58.434Z,96123
2022-09-05T06:47:23.716Z,96126
2022-09-05T06:48:13.713Z,96124
2022-09-05T06:49:28.623Z,96122
2022-09-05T06:50:36.792Z,96121
2022-09-05T06:51:44.130Z,96122
2022-09-05T06:52:54.127Z,96117
2022-09-05T06:54:03.767Z,96118
2022-09-05T06:55:13.416Z,96121
2022-09-05T06:56:25.656Z,96124
2022-09-05T06:57:30.749Z,96122
2022-09-05T06:58:40.397Z,96122
2022-09-05T06:59:49.051Z,96123
2022-09-05T07:00:58.845Z,96119
2022-09-05T07:02:07.579Z,96116
2022-09-05T07:03:16.163Z,96120
2022-09-05T07:04:33.502Z,96121
2022-09-05T07:05:39.990Z,96121
2022-09-05T07:07:00.966Z,96123
2022-09-05T07:07:58.686Z,96120
2022-09-05T07:09:09.334Z,96122
2022-09-05T07:10:37.183Z,96122
2022-09-05T07:11:29.639Z,96124
2022-09-05T07:12:39.318Z,96123
2022-09-05T07:13:49.020Z,96124
2022-09-05T07:14:58.709Z,96126
2022-09-05T07:16:08.379Z,96128
2022-09-05T07:17:17.016Z,96130
2022-09-05T07:18:26.687Z,96125
2022-09-05T07:19:36.360Z,96132
2022-09-05T07:20:47.879Z,96134
2022-09-05T07:21:56.674Z,96137
2022-09-05T07:23:20.362Z,96134
2022-09-05T07:24:40.457Z,96138
2022-09-05T07:25:26.790Z,96141
2022-09-05T07:26:39.578Z,96138
2022-09-05T07:28:18.111Z,96138
2022-09-05T07:28:58.713Z,96132
2022-09-05T07:30:08.389Z,96136
2022-09-05T07:31:27.355Z,96137
2022-09-05T07:32:28.724Z,96138
2022-09-05T07:33:36.410Z,96135
2022-09-05T07:34:46.086Z,96137
2022-09-05T07:35:54.789Z,96142
2022-09-05T07:37:15.671Z,96141
2022-09-05T07:38:14.099Z,96145
2022-09-05T07:39:29.002Z,96145
2022-09-05T07:40:31.424Z,96146
2022-09-05T07:41:41.091Z,96144
2022-09-05T07:42:51.336Z,96148
2022-09-05T07:43:59.401Z,96146
2022-09-05T07:45:08.061Z,96151
2022-09-05T07:46:17.756Z,96149
2022-09-05T07:47:27.404Z,96147
2022-09-05T07:48:35.711Z,96149
2022-09-05T07:49:53.274Z,96149
2022-09-05T07:52:19.128Z,96148
2022-09-05T07:54:59.141Z,96147
2022-09-05T07:56:48.351Z,96149
2022-09-05T07:56:57.347Z,96153
2022-09-05T07:56:57.698Z,96151
2022-09-05T07:57:20.244Z,96151
2022-09-05T07:57:59.308Z,96154
2022-09-05T07:59:08.979Z,96157
2022-09-05T08:00:26.243Z,96152
2022-09-05T08:01:28.408Z,96159
2022-09-05T08:02:41.848Z,96158
2022-09-05T08:03:49.670Z,96160
2022-09-05T08:04:58.367Z,96157
2022-09-05T08:06:07.017Z,96157
2022-09-05T08:07:34.394Z,96159
2022-09-05T08:08:26.297Z,96156
2022-09-05T08:10:07.147Z,96154
2022-09-05T08:11:22.967Z,96155
2022-09-05T08:11:58.084Z,96153
2022-09-05T08:13:23.359Z,96156
2022-09-05T08:14:40.804Z,96154
2022-09-05T08:15:31.246Z,96150
2022-09-05T08:16:37.978Z,96150
2022-09-05T08:17:47.662Z,96149
2022-09-05T08:18:57.361Z,96149
2022-09-05T08:20:08.729Z,96148
2022-09-05T08:21:16.670Z,96147
2022-09-05T08:22:27.313Z,96148
2022-09-05T08:23:35.985Z,96145
2022-09-05T08:24:45.674Z,96146
2022-09-05T08:25:57.163Z,96148
2022-09-05T08:27:05.024Z,96149
2022-09-05T08:28:15.686Z,96151
2022-09-05T08:29:24.339Z,96149
2022-09-05T08:30:34.151Z,96148
2022-09-05T08:31:42.918Z,96144
2022-09-05T08:32:52.505Z,96146
2022-09-05T08:34:03.144Z,96144
2022-09-05T08:35:12.793Z,96144
2022-09-05T08:36:21.476Z,96145
2022-09-05T08:37:29.132Z,96143
2022-09-05T08:38:40.402Z,96137
2022-09-05T08:39:48.542Z,96140
2022-09-05T08:40:59.171Z,96139
2022-09-05T08:42:08.873Z,96138
2022-09-05T08:44:04.168Z,96135
2022-09-05T08:46:20.004Z,96141
2022-09-05T08:46:38.797Z,96140
2022-09-05T08:46:50.449Z,96139
2022-09-05T08:47:59.264Z,96138
2022-09-05T08:49:11.578Z,96133
2022-09-05T08:50:19.551Z,96128
2022-09-05T08:51:30.198Z,96131
2022-09-05T08:52:39.859Z,96137
2022-09-05T08:53:48.937Z,96135
2022-09-05T08:55:04.177Z,96129
2022-09-05T08:56:08.968Z,96131
2022-09-05T08:57:17.604Z,96134
2022-09-05T08:58:27.293Z,96126
2022-09-05T08:59:34.977Z,96127
2022-09-05T09:00:50.501Z,96126
2022-09-05T09:02:17.399Z,96124
2022-09-05T09:03:07.473Z,96126
2022-09-05T09:04:17.130Z,96127
2022-09-05T09:05:33.205Z,96123
2022-09-05T09:06:37.526Z,96123
2022-09-05T09:07:51.778Z,96123
2022-09-05T09:09:00.154Z,96124
2022-09-05T09:10:07.508Z,96128
2022-09-05T09:11:17.195Z,96130
2022-09-05T09:12:25.851Z,96125
2022-09-05T09:13:35.511Z,96121
2022-09-05T09:14:44.190Z,96124
2022-09-05T09:15:53.888Z,96121
2022-09-05T09:17:03.536Z,96115
2022-09-05T09:18:12.223Z,96119
2022-09-05T09:19:22.034Z,96115
2022-09-05T09:20:32.563Z,96120
2022-09-05T09:21:41.210Z,96114
2022-09-05T09:22:50.906Z,96109
2022-09-05T09:23:59.561Z,96116
2022-09-05T09:25:14.683Z,96112
2022-09-05T09:26:19.872Z,96117
2022-09-05T09:27:53.986Z,96116
2022-09-05T09:28:49.236Z,96116
2022-09-05T09:29:51.921Z,96108
2022-09-05T09:31:00.574Z,96112
2022-09-05T09:32:10.268Z,96112
2022-09-05T09:33:17.930Z,96112
2022-09-05T09:34:27.615Z,96114
2022-09-05T09:35:38.259Z,96112
2022-09-05T09:36:46.975Z,96114
2022-09-05T09:37:59.501Z,96114
2022-09-05T09:39:06.544Z,96113
2022-09-05T09:40:17.035Z,96112
2022-09-05T09:41:26.684Z,96113
2022-09-05T09:42:35.330Z,96115
2022-09-05T09:43:50.209Z,96113
2022-09-05T09:44:55.617Z,96111
2022-09-05T09:46:05.376Z,96112
2022-09-05T09:47:13.991Z,96109
2022-09-05T09:48:23.703Z,96109
2022-09-05T09:49:32.311Z,96109
2022-09-05T09:50:41.933Z,96110
2022-09-05T09:51:51.640Z,96112
2022-09-05T09:53:01.307Z,96110
2022-09-05T09:54:09.977Z,96106
2022-09-05T09:55:21.372Z,96110
2022-09-05T09:56:30.271Z,96109
2022-09-05T09:57:38.084Z,96111
2022-09-05T09:58:46.746Z,96114
2022-09-05T09:59:55.484Z,96111
2022-09-05T10:01:09.830Z,96107
2022-09-05T10:02:29.126Z,96104
2022-09-05T10:04:31.564Z,96105
2022-09-05T10:08:55.791Z,96111
2022-09-05T10:10:04.415Z,96105
2022-09-05T10:10:37.016Z,96108
2022-09-05T10:10:37.663Z,96108
2022-09-05T10:10:40.719Z,96103
2022-09-05T10:10:41.061Z,96107
2022-09-05T10:11:54.027Z,96106
2022-09-05T10:12:53.200Z,96100
2022-09-05T10:14:01.219Z,96105
2022-09-05T10:15:16.445Z,96104
2022-09-05T10:16:22.630Z,96106
2022-09-05T10:17:32.220Z,96105
2022-09-05T10:18:40.883Z,96105
2022-09-05T10:21:15.892Z,96103
2022-09-05T10:23:21.572Z,96108
2022-09-05T10:24:31.177Z,96108
2022-09-05T10:25:40.384Z,96105
2022-09-05T10:26:49.580Z,96104
2022-09-05T10:27:59.280Z,96107
2022-09-05T10:29:11.929Z,96103
2022-09-05T10:30:19.779Z,96099
2022-09-05T10:32:10.365Z,96102
2022-09-05T10:35:05.330Z,96102
2022-09-05T10:35:05.463Z,96094
2022-09-05T10:35:12.733Z,96101
2022-09-05T10:36:15.268Z,96093
2022-09-05T10:37:21.451Z,96092
2022-09-05T10:38:30.205Z,96090
2022-09-05T10:39:39.928Z,96090
2022-09-05T10:41:20.602Z,96086
2022-09-05T10:42:02.734Z,96083
2022-09-05T10:43:08.837Z,96080
2022-09-05T10:44:17.637Z,96084
2022-09-05T10:45:30.170Z,96087
2022-09-05T10:46:50.580Z,96083
2022-09-05T10:47:48.681Z,96080
2022-09-05T10:48:58.347Z,96085
2022-09-05T10:50:06.078Z,96074
2022-09-05T10:51:15.864Z,96077
2022-09-05T10:52:26.401Z,96075
2022-09-05T10:53:39.159Z,96074
2022-09-05T10:54:43.698Z,96075
2022-09-05T10:55:53.451Z,96075
2022-09-05T10:57:02.094Z,96074
2022-09-05T10:58:11.780Z,96073
2022-09-05T11:00:50.731Z,96076
2022-09-05T11:02:19.739Z,96073
2022-09-05T11:02:25.308Z,96073
2022-09-05T11:02:57.723Z,96065
2022-09-05T11:04:02.339Z,96072
2022-09-05T11:05:10.997Z,96068
2022-09-05T11:06:20.992Z,96073
2022-09-05T11:07:29.370Z,96065
2022-09-05T11:08:36.851Z,96066
2022-09-05T11:09:46.525Z,96063
2022-09-05T11:10:57.174Z,96063
2022-09-05T11:12:05.865Z,96063
2022-09-05T11:13:15.544Z,96063
2022-09-05T11:14:26.877Z,96058
2022-09-05T11:15:34.938Z,96058
2022-09-05T11:16:45.598Z,96060
2022-09-05T11:17:55.216Z,96060
2022-09-05T11:19:03.922Z,96059
2022-09-05T11:20:14.428Z,96065
2022-09-05T11:21:24.215Z,96061
2022-09-05T11:22:33.889Z,96065
2022-09-05T11:23:43.334Z,96064
2022-09-05T11:24:52.244Z,96067
2022-09-05T11:26:01.958Z,96063
2022-09-05T11:27:25.406Z,96062
2022-09-05T11:28:19.258Z,96064
2022-09-05T11:29:28.926Z,96060
2022-09-05T11:30:38.858Z,96063
2022-09-05T11:32:10.527Z,96057
2022-09-05T11:34:50.113Z,96057
2022-09-05T11:35:39.282Z,96062
2022-09-05T11:36:44.351Z,96057
2022-09-05T11:39:49.340Z,96052
2022-09-05T11:39:49.664Z,96052
2022-09-05T11:39:49.931Z,96057
2022-09-05T11:40:32.786Z,96050
2022-09-05T11:41:13.481Z,96050
2022-09-05T11:42:23.179Z,96049
2022-09-05T11:43:32.859Z,96052
2022-09-05T11:44:42.533Z,96051
2022-09-05T11:45:52.256Z,96051
2022-09-05T11:47:14.099Z,96049
2022-09-05T11:48:12.578Z,96049
2022-09-05T11:49:22.251Z,96051
2022-09-05T11:50:31.974Z,96051
2022-09-05T11:51:39.629Z,96049
2022-09-05T11:52:48.351Z,96049
2022-09-05T11:53:58.051Z,96048
2022-09-05T11:55:06.712Z,96049
2022-09-05T11:56:17.438Z,96048
2022-09-05T11:57:32.068Z,96040
2022-09-05T11:58:47.348Z,96047
2022-09-05T12:00:10.790Z,96043
2022-09-05T12:01:35.012Z,96043
2022-09-05T12:02:23.521Z,96039
2022-09-05T12:03:41.561Z,96041
2022-09-05T12:04:38.604Z,96042
2022-09-05T12:05:58.650Z,96040
2022-09-05T12:07:00.633Z,96037
2022-09-05T12:08:10.687Z,96036
2022-09-05T12:09:23.742Z,96040
2022-09-05T12:10:46.036Z,96036
2022-09-05T12:11:43.272Z,96040
2022-09-05T12:12:50.368Z,96042
2022-09-05T12:13:58.035Z,96038
2022-09-05T12:15:08.742Z,96042
2022-09-05T12:16:18.480Z,96038
2022-09-05T12:17:32.107Z,96033
2022-09-05T12:18:38.819Z,96032
2022-09-05T12:19:48.468Z,96031
2022-09-05T12:20:57.230Z,96032
2022-09-05T12:22:08.706Z,96027
2022-09-05T12:23:19.709Z,96027
2022-09-05T12:25:15.522Z,96025
2022-09-05T12:27:37.193Z,96028
2022-09-05T12:27:37.489Z,96026
2022-09-05T12:28:51.096Z,96026
2022-09-05T12:29:28.507Z,96023
2022-09-05T12:30:22.663Z,96023
2022-09-05T12:32:19.718Z,96020
2022-09-05T12:32:48.378Z,96022
2022-09-05T12:36:03.121Z,96019
2022-09-05T12:36:09.191Z,96021
2022-09-05T12:39:52.038Z,96026
2022-09-05T12:40:48.337Z,96022
2022-09-05T12:40:57.176Z,96020
2022-09-05T12:41:40.131Z,96023
2022-09-05T12:41:48.267Z,96022
2022-09-05T12:42:19.182Z,96017
2022-09-05T12:44:34.717Z,96019
2022-09-05T12:44:40.625Z,96019
2022-09-05T12:45:40.381Z,96015
2022-09-05T12:46:48.967Z,96018
2022-09-05T12:47:57.640Z,96021
2022-09-05T12:49:08.316Z,96018
2022-09-05T12:50:17.995Z,96015
2022-09-05T12:51:45.690Z,96020
2022-09-05T12:52:35.459Z,96020
2022-09-05T12:53:45.157Z,96020
2022-09-05T12:54:56.829Z,96021
2022-09-05T12:56:12.138Z,96019
2022-09-05T12:58:02.712Z,96021
2022-09-05T12:59:38.818Z,96019
2022-09-05T13:01:42.035Z,96013
2022-09-05T13:03:00.019Z,96016
2022-09-05T13:03:10.015Z,96012
2022-09-05T13:03:37.957Z,96016
2022-09-05T13:04:20.073Z,96013
2022-09-05T13:05:27.910Z,96015
2022-09-05T13:06:37.758Z,96010
2022-09-05T13:07:46.259Z,96007
2022-09-05T13:08:59.291Z,96006
2022-09-05T13:10:41.016Z,96007
2022-09-05T13:13:29.022Z,96006
2022-09-05T13:14:52.064Z,96011
2022-09-05T13:14:59.563Z,96006
2022-09-05T13:15:05.725Z,96005
2022-09-05T13:15:58.919Z,96006
2022-09-05T13:17:08.559Z,96001
2022-09-05T13:18:17.223Z,95999
2022-09-05T13:19:25.882Z,95999
2022-09-05T13:20:35.538Z,96000
2022-09-05T13:21:45.242Z,96000
2022-09-05T13:22:54.970Z,95997
2022-09-05T13:24:04.659Z,95997
2022-09-05T13:25:13.317Z,95992
2022-09-05T13:26:23.003Z,95998
2022-09-05T13:27:32.709Z,95995
2022-09-05T13:28:42.693Z,95992
2022-09-05T13:30:05.066Z,95994
2022-09-05T13:33:26.817Z,95983
2022-09-05T13:37:57.261Z,95989
2022-09-05T13:37:57.500Z,95989
2022-09-05T13:37:57.798Z,95986
2022-09-05T13:38:09.209Z,95986
2022-09-05T13:38:26.893Z,95988
2022-09-05T13:39:16.738Z,95983
2022-09-05T13:40:26.452Z,95978
2022-09-05T13:41:33.982Z,95979
2022-09-05T13:42:43.671Z,95976
2022-09-05T13:43:53.342Z,95977
2022-09-05T13:45:04.025Z,95982
2022-09-05T13:46:12.761Z,95981
2022-09-05T13:47:29.239Z,95982
2022-09-05T13:49:23.316Z,95979
2022-09-05T13:49:41.685Z,95976
2022-09-05T13:50:50.483Z,95979
2022-09-05T13:51:59.140Z,95979
2022-09-05T13:53:11.255Z,95981
2022-09-05T13:54:18.497Z,95975
2022-09-05T13:55:27.177Z,95973
2022-09-05T13:56:35.880Z,95968
2022-09-05T13:57:44.583Z,95962
2022-09-05T13:58:56.883Z,95955
2022-09-05T14:00:03.925Z,95961
2022-09-05T14:01:13.638Z,95972
2022-09-05T14:02:25.278Z,95970
2022-09-05T14:03:38.443Z,95969
2022-09-05T14:05:54.273Z,95951
2022-09-05T14:08:15.580Z,95958
2022-09-05T14:09:40.940Z,95957
2022-09-05T14:10:34.930Z,95954
2022-09-05T14:11:44.942Z,95953
2022-09-05T14:12:53.756Z,95960
2022-09-05T14:14:01.036Z,95949
2022-09-05T14:15:11.408Z,95954
2022-09-05T14:16:19.391Z,95957
2022-09-05T14:18:39.652Z,95944
2022-09-05T14:19:49.343Z,95945
2022-09-05T14:20:59.001Z,95944
2022-09-05T14:22:09.645Z,95940
2022-09-05T14:23:20.278Z,95942
2022-09-05T14:24:28.918Z,95946
2022-09-05T14:25:37.694Z,95944
2022-09-05T14:26:46.333Z,95944
2022-09-05T14:27:55.005Z,95940
2022-09-05T14:29:04.982Z,95940
2022-09-05T14:30:35.573Z,95937
2022-09-05T14:32:23.666Z,95938
2022-09-05T14:36:23.565Z,95942
2022-09-05T14:37:38.063Z,95941
2022-09-05T14:37:38.074Z,95939
2022-09-05T14:37:47.185Z,95937
2022-09-05T14:37:47.738Z,95941
2022-09-05T14:38:28.342Z,95940
2022-09-05T14:39:35.721Z,95936
2022-09-05T14:40:44.366Z,95937
2022-09-05T14:41:54.620Z,95941
2022-09-05T14:43:04.690Z,95940
2022-09-05T14:44:13.386Z,95939
2022-09-05T14:45:23.103Z,95941
2022-09-05T14:46:32.825Z,95940
2022-09-05T14:47:42.430Z,95938
2022-09-05T14:48:53.280Z,95940
2022-09-05T14:50:00.922Z,95941
2022-09-05T14:51:10.438Z,95941
2022-09-05T14:52:23.518Z,95941
2022-09-05T14:55:58.743Z,95947
2022-09-05T14:57:45.164Z,95947
2022-09-05T15:02:31.563Z,95946
2022-09-05T15:02:40.133Z,95944
2022-09-05T15:02:46.700Z,95946
2022-09-05T15:02:46.833Z,95939
2022-09-05T15:03:01.758Z,95942
2022-09-05T15:05:17.439Z,95941
2022-09-05T15:06:28.072Z,95941
2022-09-05T15:07:36.788Z,95941
2022-09-05T15:09:53.672Z,95943